This is the latest recevied weather packets stored in our database for station/object IZ2WMD-13. If no packets are shown the sender has not sent any weather packets the latest 10 day(s).
| Time | Temp. | Humidity | Pressure | Rain* | Wind** | Luminosity | Snow |
|---|---|---|---|---|---|---|---|
| 1777981410 | 12.78° C | 97% | 1012.9 hPa | - | - | - | - |
| 1777980206 | 13.33° C | 95% | 1012.8 hPa | - | - | - | - |
| 1777977796 | 13.33° C | 91% | 1012.7 hPa | - | - | - | - |
| 1777976591 | 13.89° C | 87% | 1012.5 hPa | - | - | - | - |
| 1777975386 | 14.44° C | 84% | 1012.4 hPa | - | - | - | - |
| 1777974182 | 14.44° C | 84% | 1012.3 hPa | - | - | - | - |
| 1777971772 | 14.44° C | 84% | 1012.1 hPa | - | - | - | - |
| 1777970566 | 13.33° C | 86% | 1012.1 hPa | - | - | - | - |
| 1777968157 | 12.78° C | 85% | 1012.4 hPa | - | - | - | - |
| 1777965747 | 13.33° C | 82% | 1012.5 hPa | - | - | - | - |
| 1777964542 | 13.33° C | 80% | 1012.5 hPa | - | - | - | - |
| 1777963337 | 12.78° C | 79% | 1012.3 hPa | - | - | - | - |
| 1777962132 | 13.33° C | 72% | 1011.9 hPa | - | - | - | - |
| 1777959723 | 13.89° C | 60% | 1011.6 hPa | - | - | - | - |
| 1777958518 | 13.89° C | 61% | 1011.4 hPa | - | - | - | - |
| 1777957313 | 13.89° C | 60% | 1011.3 hPa | - | - | - | - |
| 1777956109 | 13.33° C | 61% | 1011.4 hPa | - | - | - | - |
| 1777954903 | 13.33° C | 64% | 1011.4 hPa | - | - | - | - |
| 1777951289 | 12.78° C | 71% | 1011.4 hPa | - | - | - | - |
| 1777950084 | 12.78° C | 71% | 1011.7 hPa | - | - | - | - |
| 1777948879 | 12.78° C | 73% | 1011.8 hPa | - | - | - | - |
| 1777947674 | 13.33° C | 72% | 1011.8 hPa | - | - | - | - |
| 1777945259 | 12.78° C | 71% | 1012.4 hPa | - | - | - | - |
| 1777944053 | 12.78° C | 73% | 1012.6 hPa | - | - | - | - |
| 1777942848 | 12.78° C | 69% | 1012.7 hPa | - | - | - | - |
* Rain since midnight (hover to see other rain measurements)
** Current wind speed in m/s (hover to see current wind gust speed)